createdAt,value
2019-04-23T00:01:23.872Z,12.53
2019-04-23T00:06:43.306Z,12.27
2019-04-23T00:11:33.982Z,15.30
2019-04-23T00:16:44.788Z,13.50
2019-04-23T00:22:05.479Z,14.77
2019-04-23T00:32:44.627Z,12.20
2019-04-23T00:37:49.660Z,10.90
2019-04-23T00:47:54.768Z,12.83
2019-04-23T00:53:12.029Z,11.07
2019-04-23T00:58:25.030Z,12.20
2019-04-23T01:03:47.330Z,10.57
2019-04-23T01:08:38.816Z,11.20
2019-04-23T01:18:53.957Z,11.93
2019-04-23T01:24:08.106Z,12.73
2019-04-23T01:29:48.715Z,11.03
2019-04-23T01:34:56.225Z,10.37
2019-04-23T01:40:00.098Z,9.37
2019-04-23T01:45:20.043Z,11.93
2019-04-23T01:50:20.475Z,10.80
2019-04-23T02:00:41.051Z,13.00
2019-04-23T02:05:55.781Z,11.50
2019-04-23T02:10:56.744Z,14.40
2019-04-23T02:16:21.428Z,11.57
2019-04-23T02:21:35.239Z,10.40
2019-04-23T02:32:03.577Z,14.43
2019-04-23T02:47:47.878Z,11.67
2019-04-23T02:57:41.538Z,12.17
2019-04-23T03:02:59.144Z,12.70
2019-04-23T03:08:13.797Z,13.20
2019-04-23T03:29:10.700Z,15.13
2019-04-23T03:35:30.964Z,14.47
2019-04-23T03:39:19.071Z,15.60
2019-04-23T03:44:49.478Z,12.43
2019-04-23T03:50:15.786Z,14.87
2019-04-23T03:55:15.635Z,12.10
2019-04-23T04:05:45.721Z,14.40
2019-04-23T04:10:55.044Z,12.20
2019-04-23T04:15:57.189Z,13.77
2019-04-23T04:26:14.287Z,11.67
2019-04-23T04:31:25.241Z,18.67
2019-04-23T04:37:11.856Z,15.43
2019-04-23T04:41:59.393Z,14.00
2019-04-23T04:46:50.389Z,13.63
2019-04-23T04:57:28.382Z,17.33
2019-04-23T05:12:56.395Z,17.70
2019-04-23T05:18:09.907Z,14.93
2019-04-23T05:28:20.408Z,14.87
2019-04-23T05:43:47.515Z,15.23
2019-04-23T05:54:08.466Z,14.63
2019-04-23T05:59:16.386Z,20.07
2019-04-23T06:04:24.837Z,14.47
2019-04-23T06:09:32.448Z,17.17
2019-04-23T06:14:43.768Z,17.30
2019-04-23T06:20:01.082Z,17.93
2019-04-23T06:25:35.878Z,16.50
2019-04-23T06:30:24.299Z,20.70
2019-04-23T06:35:23.841Z,27.53
2019-04-23T06:40:35.821Z,17.90
2019-04-23T06:46:01.356Z,20.43
2019-04-23T06:51:04.265Z,23.50
2019-04-23T07:01:17.591Z,24.07
2019-04-23T07:06:38.385Z,22.03
2019-04-23T07:11:39.290Z,25.10
2019-04-23T07:16:46.962Z,18.10
2019-04-23T07:22:06.673Z,17.77
2019-04-23T07:27:11.846Z,20.80
2019-04-23T07:32:15.155Z,14.93
2019-04-23T07:37:34.383Z,21.27
2019-04-23T07:42:44.605Z,25.87
2019-04-23T07:48:12.398Z,18.63
2019-04-23T07:53:17.017Z,19.30
2019-04-23T07:58:29.234Z,28.50
2019-04-23T08:03:40.085Z,21.97
2019-04-23T08:19:05.564Z,25.33
2019-04-23T08:24:21.722Z,18.60
2019-04-23T08:29:26.765Z,27.80
2019-04-23T08:34:48.405Z,23.87
2019-04-23T08:39:46.465Z,28.30
2019-04-23T08:50:34.028Z,28.97
2019-04-23T08:55:46.448Z,21.00
2019-04-23T09:06:06.235Z,24.00
2019-04-23T09:11:30.468Z,17.30
2019-04-23T09:16:29.251Z,28.10
2019-04-23T09:21:32.636Z,22.87
2019-04-23T09:26:53.605Z,31.60
2019-04-23T09:32:22.334Z,31.37
2019-04-23T09:37:35.142Z,26.17
2019-04-23T09:42:54.386Z,26.40
2019-04-23T09:48:01.092Z,29.90
2019-04-23T09:53:11.172Z,29.20
2019-04-23T09:58:34.594Z,30.17
2019-04-23T10:03:20.996Z,22.80
2019-04-23T10:08:24.247Z,23.73
2019-04-23T10:13:29.570Z,32.73
2019-04-23T10:18:39.233Z,17.97
2019-04-23T10:23:47.684Z,27.50
2019-04-23T10:29:02.264Z,24.30
2019-04-23T10:34:12.255Z,33.03
2019-04-23T10:39:25.830Z,24.03
2019-04-23T10:44:33.443Z,27.37
2019-04-23T10:50:35.846Z,28.80
2019-04-23T10:55:51.102Z,37.90
2019-04-23T11:00:53.794Z,29.73
2019-04-23T11:06:15.088Z,29.47
2019-04-23T11:11:22.215Z,36.20
2019-04-23T11:21:55.422Z,21.70
2019-04-23T11:32:05.920Z,19.83
2019-04-23T11:57:59.321Z,24.13
2019-04-23T12:02:58.852Z,25.67
2019-04-23T12:08:26.772Z,30.87
2019-04-23T12:18:43.233Z,32.00
2019-04-23T12:24:00.821Z,32.60
2019-04-23T12:28:57.134Z,28.60
2019-04-23T12:34:05.116Z,31.77
2019-04-23T12:44:25.456Z,32.33
2019-04-23T12:50:01.783Z,43.60
2019-04-23T12:54:59.025Z,25.67
2019-04-23T12:59:58.409Z,28.53
2019-04-23T13:05:25.907Z,41.93
2019-04-23T13:15:30.040Z,38.37
2019-04-23T13:20:51.682Z,34.10
2019-04-23T13:26:18.420Z,37.93
2019-04-23T13:36:36.258Z,33.23
2019-04-23T13:41:39.117Z,37.40
2019-04-23T13:47:02.964Z,31.10
2019-04-23T13:52:24.263Z,40.77
2019-04-23T14:07:48.471Z,35.77
2019-04-23T14:18:29.062Z,42.20
2019-04-23T14:23:29.335Z,32.13
2019-04-23T14:33:50.622Z,31.73
2019-04-23T14:38:49.724Z,41.33
2019-04-23T14:44:00.494Z,39.60
2019-04-23T14:49:16.139Z,34.80
2019-04-23T14:54:33.331Z,34.10
2019-04-23T14:59:19.867Z,41.70
2019-04-23T15:04:48.293Z,30.67
2019-04-23T15:10:01.204Z,31.33
2019-04-23T15:15:21.141Z,30.37
2019-04-23T15:20:33.143Z,36.30
2019-04-23T15:25:54.537Z,32.23
2019-04-23T15:30:52.122Z,36.70
2019-04-23T15:36:21.976Z,24.10
2019-04-23T15:41:15.188Z,30.80
2019-04-23T15:46:25.461Z,27.70
2019-04-23T15:51:35.163Z,23.37
2019-04-23T15:56:50.541Z,30.27
2019-04-23T16:01:41.322Z,24.90
2019-04-23T16:06:41.556Z,17.90
2019-04-23T16:12:17.332Z,22.00
2019-04-23T16:17:28.899Z,30.43
2019-04-23T16:22:36.624Z,26.83
2019-04-23T16:27:49.167Z,28.53
2019-04-23T16:33:10.412Z,29.77
2019-04-23T16:48:44.027Z,26.40
2019-04-23T16:53:42.654Z,27.80
2019-04-23T16:59:02.659Z,23.50
2019-04-23T17:04:05.028Z,24.87
2019-04-23T17:09:10.189Z,28.10
2019-04-23T17:14:18.756Z,23.53
2019-04-23T17:19:38.274Z,30.77
2019-04-23T17:24:40.330Z,20.10
2019-04-23T17:29:51.043Z,24.10
2019-04-23T17:35:09.585Z,24.43
2019-04-23T17:40:24.011Z,26.93
2019-04-23T17:50:56.637Z,32.90
2019-04-23T17:56:18.507Z,22.53
2019-04-23T18:06:37.650Z,14.50
2019-04-23T18:11:52.363Z,15.43
2019-04-23T18:17:11.450Z,16.83
2019-04-23T18:22:07.056Z,17.07
2019-04-23T18:27:18.009Z,18.00
2019-04-23T18:32:33.549Z,20.80
2019-04-23T18:37:34.608Z,17.70
2019-04-23T18:48:33.019Z,13.17
2019-04-23T18:53:40.758Z,13.90
2019-04-23T19:04:09.885Z,16.17
2019-04-23T19:14:24.512Z,20.17
2019-04-23T19:19:30.944Z,17.87
2019-04-23T19:24:40.023Z,20.33
2019-04-23T19:29:48.007Z,16.53
2019-04-23T19:34:56.325Z,15.73
2019-04-23T19:40:00.270Z,17.10
2019-04-23T19:45:23.560Z,18.80
2019-04-23T19:50:34.322Z,16.30
2019-04-23T19:55:57.117Z,19.03
2019-04-23T20:06:12.293Z,21.03
2019-04-23T20:11:13.514Z,19.03
2019-04-23T20:16:31.419Z,17.70
2019-04-23T20:21:38.821Z,19.77
2019-04-23T20:26:45.728Z,17.23
2019-04-23T20:37:06.650Z,19.80
2019-04-23T20:42:34.611Z,15.73
2019-04-23T20:47:32.615Z,18.37
2019-04-23T20:52:44.812Z,19.33
2019-04-23T20:58:00.667Z,19.77
2019-04-23T21:03:25.852Z,20.27
2019-04-23T21:08:14.776Z,21.90
2019-04-23T21:13:41.369Z,19.47
2019-04-23T21:28:58.795Z,19.87
2019-04-23T21:34:17.376Z,20.27
2019-04-23T21:39:46.170Z,20.50
2019-04-23T21:44:41.990Z,21.63
2019-04-23T21:50:03.179Z,20.63
2019-04-23T21:55:02.426Z,24.83
2019-04-23T22:00:24.048Z,23.00
2019-04-23T22:05:45.926Z,25.10
2019-04-23T22:10:57.416Z,27.87
2019-04-23T22:16:11.032Z,26.10
2019-04-23T22:26:28.555Z,20.63
2019-04-23T22:36:57.975Z,28.73
2019-04-23T23:08:59.878Z,16.07
2019-04-23T23:19:42.672Z,27.33
2019-04-23T23:24:18.220Z,27.30
2019-04-23T23:29:28.234Z,26.77
2019-04-23T23:35:02.654Z,29.33
2019-04-23T23:40:11.076Z,26.20
2019-04-23T23:45:14.474Z,28.83
2019-04-23T23:50:30.327Z,28.77
2019-04-23T23:55:38.462Z,27.17
